Terminal Aerodrome Forecast
Issued by NWS

Home | Current Version | Previous Version | Text Only | Print | Product List | Glossary On
Versions: 1 2 3 4 5 6 7 8 9 10 11 12 13 14 15 16 17 18 19 20 21 22 23 24 25 26 27 28 29 30 31 32
000
FTUS41 KCTP 140818 AAD
TAFAOO
TAF AMD
KAOO 140818Z 1408/1506 30003KT 1 1/2SM -SN BR BKN015 OVC022
     FM141500 32015G23KT P6SM BKN050
     FM142000 30007KT P6SM OVC250=

USA.gov is the U.S. government's official web portal to all federal, state and local government web resources and services.